Time;durP1;ratioP1;P1;durP2;ratioP2;P2;SDS_P1;SDS_P2;PMS_P1;PMS_P2;Temp;Humidity;BMP_temperature;BMP_pressure;BME280_temperature;BME280_humidity;BME280_pressure;Samples;Min_cycle;Max_cycle;Signal;HPM_P1;HPM_P2
2022/11/04 00:01:45;;;;;;;4.30;4.00;;;11.10;99.90;;;;;;2615038;54;20399;-82
2022/11/04 00:04:13;;;;;;;3.93;3.73;;;11.10;99.90;;;;;;2615760;39;20562;-81
2022/11/04 00:06:38;;;;;;;3.73;3.47;;;11.10;99.90;;;;;;2616359;39;20920;-77
2022/11/04 00:09:08;;;;;;;3.73;3.53;;;11.00;99.90;;;;;;2615119;54;20418;-77
2022/11/04 00:14:20;;;;;;;5.27;4.00;;;11.00;99.90;;;;;;2613481;54;20430;-78
2022/11/04 00:28:41;;;;;;;4.40;4.00;;;10.90;99.90;;;;;;2614455;54;20980;-79
2022/11/04 00:30:29;;;;;;;3.77;3.47;;;10.90;99.90;;;;;;2609799;54;20405;-81
2022/11/04 00:35:39;;;;;;;8.10;3.80;;;10.90;99.90;;;;;;2615300;54;20781;-80
2022/11/04 00:38:04;;;;;;;4.20;3.90;;;10.90;99.90;;;;;;2613300;54;20398;-78
2022/11/04 00:40:30;;;;;;;4.33;4.03;;;10.90;99.90;;;;;;2613781;54;20166;-79
2022/11/04 00:42:55;;;;;;;5.83;3.80;;;10.80;99.90;;;;;;2614549;54;20210;-80
2022/11/04 00:45:21;;;;;;;5.20;3.40;;;10.80;99.90;;;;;;2614555;47;20174;-80
2022/11/04 00:47:47;;;;;;;3.90;3.50;;;10.80;99.90;;;;;;2614012;54;20158;-79
2022/11/04 00:50:12;;;;;;;3.70;3.40;;;10.80;99.90;;;;;;2613619;54;20393;-80
2022/11/04 00:52:38;;;;;;;3.40;3.20;;;10.80;99.90;;;;;;2614092;39;20668;-80
2022/11/04 00:55:04;;;;;;;4.27;3.50;;;10.80;99.90;;;;;;2613111;54;20154;-78
2022/11/04 00:57:30;;;;;;;4.70;3.50;;;10.90;99.90;;;;;;2614484;54;20158;-79
2022/11/04 00:59:56;;;;;;;3.33;3.03;;;10.80;99.90;;;;;;2614030;54;21081;-79
2022/11/04 01:02:22;;;;;;;3.73;3.40;;;10.90;99.90;;;;;;2614297;48;20454;-79
2022/11/04 01:04:47;;;;;;;4.43;3.30;;;10.90;99.90;;;;;;2614039;54;20310;-80
2022/11/04 01:07:13;;;;;;;3.70;2.67;;;10.80;99.90;;;;;;2613869;54;20494;-80
2022/11/04 01:09:39;;;;;;;3.00;2.80;;;10.80;99.90;;;;;;2613383;54;20178;-80
2022/11/04 01:12:04;;;;;;;3.03;2.83;;;10.80;99.90;;;;;;2614210;54;20175;-81
2022/11/04 01:14:30;;;;;;;6.43;3.77;;;10.80;99.90;;;;;;2614402;54;20171;-80
2022/11/04 01:16:56;;;;;;;3.90;3.50;;;10.90;99.90;;;;;;2614475;54;20197;-77
2022/11/04 01:19:22;;;;;;;3.27;2.90;;;10.90;99.90;;;;;;2613255;54;20709;-78
2022/11/04 01:21:51;;;;;;;3.97;3.67;;;10.90;99.90;;;;;;2613529;54;20190;-80
2022/11/04 01:24:17;;;;;;;5.00;3.47;;;10.80;99.90;;;;;;2613505;39;20891;-80
2022/11/04 01:26:43;;;;;;;3.33;2.97;;;10.90;99.90;;;;;;2614974;54;20411;-79
2022/11/04 01:29:09;;;;;;;3.43;3.00;;;10.80;99.90;;;;;;2613443;47;20457;-80
2022/11/04 01:31:34;;;;;;;6.50;3.50;;;10.80;99.90;;;;;;2613891;54;20165;-77
2022/11/04 01:34:00;;;;;;;3.57;3.27;;;10.80;99.90;;;;;;2613098;54;20166;-79
2022/11/04 01:36:27;;;;;;;3.30;3.00;;;10.70;99.90;;;;;;2612684;54;20163;-79
2022/11/04 01:38:55;;;;;;;3.60;3.10;;;10.70;99.90;;;;;;2613853;54;20158;-79
2022/11/04 01:41:27;;;;;;;3.57;3.27;;;10.70;99.90;;;;;;2613838;54;20398;-77
2022/11/04 01:43:55;;;;;;;3.50;3.13;;;10.60;99.90;;;;;;2613786;54;20397;-78
2022/11/04 01:46:49;;;;;;;11.90;4.40;;;10.50;99.90;;;;;;2613816;54;20387;-79
2022/11/04 01:49:29;;;;;;;3.60;3.20;;;10.50;99.90;;;;;;2613616;54;20441;-76
2022/11/04 01:52:08;;;;;;;3.53;3.23;;;10.60;99.90;;;;;;2614174;54;20438;-81
2022/11/04 01:54:34;;;;;;;4.90;3.20;;;10.70;99.90;;;;;;2613631;54;20511;-78
2022/11/04 01:57:02;;;;;;;4.10;3.30;;;10.60;99.90;;;;;;2614096;54;20428;-80
2022/11/04 01:59:34;;;;;;;7.10;3.97;;;10.60;99.90;;;;;;2614689;31;20871;-79
2022/11/04 02:01:59;;;;;;;4.30;3.77;;;10.70;99.90;;;;;;2613364;54;20623;-82
2022/11/04 02:04:26;;;;;;;4.53;3.97;;;10.60;99.90;;;;;;2613709;54;20412;-81
2022/11/04 02:06:54;;;;;;;5.30;3.70;;;10.60;99.90;;;;;;2613680;47;20407;-79
2022/11/04 02:09:21;;;;;;;4.83;4.33;;;10.80;99.90;;;;;;2613866;39;20821;-79
2022/11/04 02:14:33;;;;;;;7.50;4.00;;;10.90;99.90;;;;;;2613068;54;21164;-79
2022/11/04 02:17:15;;;;;;;4.27;3.43;;;10.90;99.90;;;;;;2614283;54;20453;-79
2022/11/04 02:20:18;;;;;;;6.67;4.03;;;10.80;99.90;;;;;;2613291;39;20850;-78
2022/11/04 02:22:43;;;;;;;4.53;3.00;;;10.80;99.90;;;;;;2616383;47;20463;-84
2022/11/04 02:25:31;;;;;;;4.20;3.57;;;10.80;99.90;;;;;;2616080;54;20423;-85
2022/11/04 02:28:12;;;;;;;3.97;3.57;;;10.70;99.90;;;;;;2612477;47;20177;-80
2022/11/04 02:31:09;;;;;;;4.93;3.80;;;10.50;99.90;;;;;;2611911;31;21101;-80
2022/11/04 02:33:55;;;;;;;5.67;3.90;;;10.60;99.90;;;;;;2613348;54;20479;-79
2022/11/04 02:36:30;;;;;;;6.30;4.37;;;10.50;99.90;;;;;;2614144;54;20430;-81
2022/11/04 02:39:21;;;;;;;5.60;4.10;;;10.40;99.90;;;;;;2615371;54;20426;-82
2022/11/04 02:42:31;;;;;;;6.00;4.07;;;10.40;99.90;;;;;;2614570;54;20413;-79
2022/11/04 02:45:02;;;;;;;4.17;3.53;;;10.50;99.90;;;;;;2615315;54;21057;-81
2022/11/04 02:47:30;;;;;;;9.27;4.63;;;10.40;99.90;;;;;;2612432;54;20419;-80
2022/11/04 02:50:13;;;;;;;6.70;3.70;;;10.30;99.90;;;;;;2612716;47;20431;-79
2022/11/04 02:53:07;;;;;;;6.33;3.73;;;10.30;99.90;;;;;;2613960;54;20402;-80
2022/11/04 02:55:42;;;;;;;7.67;3.70;;;10.30;99.90;;;;;;2613510;46;20452;-81
2022/11/04 02:58:16;;;;;;;5.57;3.63;;;10.20;99.90;;;;;;2614140;54;20504;-80
2022/11/04 03:00:43;;;;;;;3.70;3.30;;;10.10;99.90;;;;;;2612987;54;20427;-80
2022/11/04 03:03:21;;;;;;;4.53;3.23;;;10.10;99.90;;;;;;2614011;47;20431;-80
2022/11/04 03:05:49;;;;;;;5.00;3.17;;;10.20;99.90;;;;;;2612769;54;20424;-81
2022/11/04 03:08:21;;;;;;;5.23;3.20;;;10.20;99.90;;;;;;2614051;54;20450;-81
2022/11/04 03:10:52;;;;;;;3.70;2.97;;;10.10;99.90;;;;;;2614167;54;20420;-80
2022/11/04 03:13:32;;;;;;;8.60;3.30;;;10.00;99.90;;;;;;2615484;39;20810;-81
2022/11/04 03:16:02;;;;;;;3.53;2.70;;;10.10;99.90;;;;;;2615091;47;20439;-79
2022/11/04 03:18:53;;;;;;;4.50;3.00;;;10.00;99.90;;;;;;2615351;54;20531;-80
2022/11/04 03:21:21;;;;;;;5.20;2.90;;;9.90;99.90;;;;;;2613959;47;20437;-79
2022/11/04 03:23:46;;;;;;;11.13;3.30;;;9.90;99.90;;;;;;2614744;54;20497;-78
2022/11/04 03:26:19;;;;;;;3.80;2.80;;;9.80;99.90;;;;;;2615124;54;20459;-80
2022/11/04 03:29:06;;;;;;;6.77;3.20;;;9.80;99.90;;;;;;2616179;51;20166;-80
2022/11/04 03:31:49;;;;;;;7.37;3.30;;;9.80;99.90;;;;;;2614258;39;20774;-80
2022/11/04 03:34:15;;;;;;;5.10;3.53;;;9.80;99.90;;;;;;2612936;54;20405;-79
2022/11/04 03:36:40;;;;;;;4.53;3.30;;;9.70;99.90;;;;;;2613024;47;20418;-79
2022/11/04 03:39:06;;;;;;;4.03;2.40;;;9.80;99.90;;;;;;2613428;39;20653;-80
2022/11/04 03:41:45;;;;;;;5.63;3.53;;;9.60;99.90;;;;;;2612749;54;20301;-80
2022/11/04 03:44:10;;;;;;;3.10;2.53;;;9.60;99.90;;;;;;2612519;54;20182;-84
2022/11/04 03:46:37;;;;;;;4.57;2.60;;;9.70;99.90;;;;;;2616126;54;20443;-86
2022/11/04 03:49:05;;;;;;;2.73;2.43;;;9.60;99.90;;;;;;2613658;47;20177;-79
2022/11/04 03:51:31;;;;;;;6.70;2.93;;;9.50;99.90;;;;;;2612791;47;20408;-80
2022/11/04 03:53:57;;;;;;;6.53;2.40;;;9.50;99.90;;;;;;2613844;54;20387;-79
2022/11/04 03:56:39;;;;;;;5.33;3.07;;;9.50;99.90;;;;;;2613281;54;20154;-79
2022/11/04 03:59:26;;;;;;;4.80;2.50;;;9.40;99.90;;;;;;2613525;54;20442;-80
2022/11/04 04:01:54;;;;;;;5.20;2.40;;;9.50;99.90;;;;;;2611765;54;20406;-80
2022/11/04 04:04:27;;;;;;;5.30;2.43;;;9.50;99.90;;;;;;2613109;54;20410;-79
2022/11/04 04:07:01;;;;;;;3.97;2.83;;;9.50;99.90;;;;;;2613093;54;20402;-78
2022/11/04 04:09:38;;;;;;;3.90;2.73;;;9.50;99.90;;;;;;2612873;39;20791;-80
2022/11/04 04:12:15;;;;;;;4.57;3.87;;;9.40;99.90;;;;;;2613901;54;20406;-81
2022/11/04 04:14:50;;;;;;;2.70;2.40;;;9.40;99.90;;;;;;2613887;54;20431;-79
2022/11/04 04:17:24;;;;;;;5.43;3.13;;;9.40;99.90;;;;;;2613304;54;20426;-80
2022/11/04 04:20:07;;;;;;;7.40;3.63;;;9.30;99.90;;;;;;2612235;54;20399;-79
2022/11/04 04:22:38;;;;;;;6.13;4.00;;;9.30;99.90;;;;;;2612697;54;20447;-79
2022/11/04 04:27:54;;;;;;;6.80;3.03;;;9.20;99.90;;;;;;2613321;54;20554;-80
2022/11/04 04:30:20;;;;;;;6.60;2.73;;;9.20;99.90;;;;;;2612849;54;20418;-80
2022/11/04 04:32:54;;;;;;;5.37;3.00;;;9.20;99.90;;;;;;2613584;54;20424;-79
2022/11/04 04:35:42;;;;;;;6.20;3.37;;;9.20;99.90;;;;;;2614787;54;20591;-83
2022/11/04 04:47:09;;;;;;;7.87;4.17;;;9.00;99.90;;;;;;2613216;54;20958;-80
2022/11/04 04:49:35;;;;;;;3.53;3.17;;;9.00;99.90;;;;;;2615314;54;20446;-87
2022/11/04 04:52:06;;;;;;;7.37;3.30;;;9.10;99.90;;;;;;2617011;54;20427;-90
2022/11/04 04:54:34;;;;;;;12.97;3.43;;;9.20;99.90;;;;;;2614764;47;20165;-78
2022/11/04 04:57:00;;;;;;;8.93;3.20;;;9.20;99.90;;;;;;2613174;46;20435;-78
2022/11/04 04:59:26;;;;;;;5.57;3.50;;;9.20;99.90;;;;;;2613946;47;20399;-78
2022/11/04 05:01:51;;;;;;;10.87;3.80;;;9.10;99.90;;;;;;2613174;47;20193;-78
2022/11/04 05:04:17;;;;;;;9.77;3.40;;;9.10;99.90;;;;;;2615494;31;20619;-79
2022/11/04 05:06:42;;;;;;;9.90;4.03;;;9.10;99.90;;;;;;2613784;54;20162;-79
2022/11/04 05:09:08;;;;;;;7.40;3.07;;;9.00;99.90;;;;;;2613185;47;20261;-77
2022/11/04 05:11:34;;;;;;;7.80;3.27;;;9.10;99.90;;;;;;2613806;54;20819;-78
2022/11/04 05:13:59;;;;;;;5.63;2.80;;;9.00;99.90;;;;;;2613246;39;20833;-88
2022/11/04 05:16:25;;;;;;;4.70;3.30;;;9.00;99.90;;;;;;2616424;54;20165;-87
2022/11/04 05:18:51;;;;;;;4.50;2.97;;;9.10;99.90;;;;;;2615288;54;20163;-80
2022/11/04 05:21:18;;;;;;;7.83;3.13;;;9.00;99.90;;;;;;2613923;31;20651;-79
2022/11/04 05:23:43;;;;;;;6.47;3.30;;;9.10;99.90;;;;;;2613712;54;20427;-80
2022/11/04 05:26:09;;;;;;;7.67;3.97;;;8.90;99.90;;;;;;2614286;54;20410;-79
2022/11/04 05:28:34;;;;;;;8.90;3.87;;;8.80;99.90;;;;;;2613535;54;20163;-83
2022/11/04 05:31:05;;;;;;;7.00;3.57;;;8.60;99.90;;;;;;2615004;39;20517;-85
2022/11/04 05:33:31;;;;;;;8.53;3.90;;;8.60;99.90;;;;;;2614617;54;20151;-87
2022/11/04 05:36:11;;;;;;;13.33;4.10;;;8.60;99.90;;;;;;2614788;47;20434;-86
2022/11/04 05:38:37;;;;;;;10.27;4.17;;;8.70;99.90;;;;;;2615591;39;20765;-79
2022/11/04 05:41:03;;;;;;;15.13;5.30;;;8.70;99.90;;;;;;2613625;54;20788;-79
2022/11/04 05:43:29;;;;;;;17.07;4.20;;;8.70;99.90;;;;;;2613801;54;20178;-79
2022/11/04 05:45:57;;;;;;;7.63;4.63;;;8.70;99.90;;;;;;2613744;54;20420;-79
2022/11/04 05:48:23;;;;;;;9.53;4.03;;;8.70;99.90;;;;;;2613185;39;20564;-79
2022/11/04 05:50:49;;;;;;;9.20;3.80;;;8.70;99.90;;;;;;2613084;54;20510;-80
2022/11/04 05:53:14;;;;;;;8.90;4.53;;;8.70;99.90;;;;;;2612297;54;20721;-80
2022/11/04 05:55:40;;;;;;;7.20;4.20;;;8.70;99.90;;;;;;2612361;54;20634;-80
2022/11/04 05:58:06;;;;;;;7.70;3.93;;;8.90;99.90;;;;;;2611670;54;20636;-80
2022/11/04 06:00:31;;;;;;;6.30;4.33;;;8.80;99.90;;;;;;2612519;47;20258;-80
2022/11/04 06:02:57;;;;;;;7.80;4.13;;;8.80;99.90;;;;;;2611720;54;20159;-80
2022/11/04 06:05:23;;;;;;;6.93;4.73;;;8.90;99.90;;;;;;2612860;54;20167;-80
2022/11/04 06:07:49;;;;;;;3.80;3.40;;;8.90;99.90;;;;;;2614058;39;20585;-79
2022/11/04 06:10:15;;;;;;;9.60;4.80;;;8.90;99.90;;;;;;2613859;54;20422;-80
2022/11/04 06:12:40;;;;;;;13.40;4.43;;;8.80;99.90;;;;;;2611599;54;20836;-79
2022/11/04 06:15:08;;;;;;;8.07;4.03;;;8.80;99.90;;;;;;2615262;54;20166;-86
2022/11/04 06:17:33;;;;;;;11.47;4.70;;;8.80;99.90;;;;;;2613499;39;20588;-85
2022/11/04 06:19:59;;;;;;;9.33;4.03;;;8.80;99.90;;;;;;2614013;54;20419;-78
2022/11/04 06:22:25;;;;;;;7.83;4.17;;;8.90;99.90;;;;;;2611635;54;20198;-78
2022/11/04 06:24:50;;;;;;;7.37;4.50;;;8.90;99.90;;;;;;2610334;54;20269;-78
2022/11/04 06:27:16;;;;;;;6.90;4.00;;;8.90;99.90;;;;;;2612725;54;20182;-79
2022/11/04 06:29:42;;;;;;;8.40;4.13;;;9.00;99.90;;;;;;2613122;54;20159;-79
2022/11/04 06:32:09;;;;;;;3.93;3.07;;;8.90;99.90;;;;;;2612214;54;20167;-78
2022/11/04 06:34:34;;;;;;;5.53;3.80;;;9.00;99.90;;;;;;2613819;54;20250;-78
2022/11/04 06:37:00;;;;;;;14.57;4.90;;;8.90;99.90;;;;;;2612521;47;20426;-78
2022/11/04 06:39:26;;;;;;;8.43;4.23;;;8.90;99.90;;;;;;2610714;54;20963;-79
2022/11/04 06:41:52;;;;;;;7.13;4.07;;;8.90;99.90;;;;;;2610759;54;20278;-80
2022/11/04 06:44:17;;;;;;;7.40;3.63;;;8.90;99.90;;;;;;2611105;54;20162;-79
2022/11/04 06:46:43;;;;;;;9.40;4.80;;;8.90;99.90;;;;;;2611476;54;20242;-79
2022/11/04 06:49:14;;;;;;;8.43;4.33;;;8.90;99.90;;;;;;2610308;54;20174;-79
2022/11/04 06:51:40;;;;;;;11.53;4.40;;;8.90;99.90;;;;;;2610319;54;20238;-78
2022/11/04 06:54:06;;;;;;;11.77;6.03;;;8.90;99.90;;;;;;2611203;54;20966;-81
2022/11/04 06:56:32;;;;;;;8.47;3.90;;;9.00;99.90;;;;;;2611271;54;20470;-80
2022/11/04 06:58:58;;;;;;;7.23;4.03;;;9.10;99.90;;;;;;2609475;54;20447;-82
2022/11/04 07:01:26;;;;;;;11.20;4.70;;;9.30;99.90;;;;;;2612080;54;20154;-81
2022/11/04 07:03:56;;;;;;;13.40;5.37;;;9.40;99.90;;;;;;2611461;54;20162;-88
2022/11/04 07:06:22;;;;;;;8.53;4.80;;;9.50;99.90;;;;;;2618761;54;20406;-87
2022/11/04 07:08:50;;;;;;;12.53;5.37;;;9.40;99.90;;;;;;2617510;54;20437;-82
2022/11/04 07:11:17;;;;;;;7.20;3.93;;;9.50;99.90;;;;;;2613703;39;20897;-81
2022/11/04 07:13:43;;;;;;;9.97;4.13;;;9.40;99.90;;;;;;2612665;54;20407;-81
2022/11/04 07:16:09;;;;;;;8.33;3.97;;;9.50;99.90;;;;;;2618635;54;20419;-81
2022/11/04 07:18:35;;;;;;;9.80;5.57;;;9.50;99.90;;;;;;2619240;54;20173;-81
2022/11/04 07:21:02;;;;;;;7.43;4.13;;;9.70;99.90;;;;;;2613115;54;20424;-80
2022/11/04 07:23:27;;;;;;;11.27;4.50;;;9.80;99.90;;;;;;2609545;54;20460;-80
2022/11/04 07:25:57;;;;;;;8.57;4.50;;;9.90;99.90;;;;;;2613557;54;20431;-81
2022/11/04 07:28:23;;;;;;;8.80;4.20;;;10.00;99.90;;;;;;2613858;54;20151;-82
2022/11/04 07:30:49;;;;;;;10.60;4.37;;;10.00;99.90;;;;;;2613784;39;20825;-78
2022/11/04 07:33:14;;;;;;;8.40;4.60;;;10.00;99.90;;;;;;2610331;54;20158;-79
2022/11/04 07:35:42;;;;;;;8.33;4.63;;;10.00;99.90;;;;;;2618008;54;20150;-88
2022/11/04 07:38:07;;;;;;;9.77;4.00;;;10.00;99.90;;;;;;2618220;39;20674;-88
2022/11/04 07:40:33;;;;;;;8.47;4.67;;;10.10;99.90;;;;;;2618543;54;20398;-90
2022/11/04 07:43:00;;;;;;;5.57;3.90;;;10.10;99.90;;;;;;2617447;54;20159;-87
2022/11/04 07:45:26;;;;;;;6.30;4.20;;;10.10;99.90;;;;;;2613173;39;20622;-78
2022/11/04 07:47:51;;;;;;;7.30;4.13;;;10.10;99.90;;;;;;2611654;54;20423;-78
2022/11/04 07:50:17;;;;;;;6.93;4.03;;;10.10;99.90;;;;;;2611296;39;20779;-81
2022/11/04 07:52:43;;;;;;;8.60;5.33;;;10.20;99.90;;;;;;2611296;54;20147;-82
2022/11/04 07:55:09;;;;;;;17.73;4.97;;;10.20;99.90;;;;;;2612279;54;20643;-79
2022/11/04 07:57:35;;;;;;;7.73;3.93;;;10.20;99.90;;;;;;2628579;36;20277;-77
2022/11/04 08:00:04;;;;;;;8.53;4.20;;;10.30;99.90;;;;;;2611573;54;20249;-82
2022/11/04 08:02:31;;;;;;;7.87;4.50;;;10.30;99.90;;;;;;2612961;47;20414;-82
2022/11/04 08:04:56;;;;;;;9.83;4.17;;;10.40;99.90;;;;;;2616402;54;20427;-88
2022/11/04 08:07:22;;;;;;;4.70;3.80;;;10.40;99.90;;;;;;2618670;39;20931;-88
2022/11/04 08:09:48;;;;;;;7.70;3.87;;;10.50;99.90;;;;;;2617928;54;20245;-88
2022/11/04 08:12:13;;;;;;;10.77;4.33;;;10.40;99.90;;;;;;2616577;54;20170;-87
2022/11/04 08:14:39;;;;;;;5.40;3.90;;;10.60;99.90;;;;;;2618040;47;20523;-88
2022/11/04 08:17:06;;;;;;;6.33;3.70;;;10.50;99.90;;;;;;2618938;54;20147;-86
2022/11/04 08:19:31;;;;;;;26.73;4.10;;;10.50;99.90;;;;;;2617786;31;20612;-78
2022/11/04 08:21:57;;;;;;;7.67;4.83;;;10.50;99.90;;;;;;2614254;54;20435;-78
2022/11/04 08:24:24;;;;;;;7.13;4.60;;;10.40;99.90;;;;;;2612627;54;20194;-81
2022/11/04 08:26:49;;;;;;;9.03;4.80;;;10.50;99.90;;;;;;2613482;54;20166;-82
2022/11/04 08:29:15;;;;;;;10.23;3.77;;;10.50;99.90;;;;;;2617377;54;20423;-87
2022/11/04 08:31:41;;;;;;;13.30;3.30;;;10.50;99.90;;;;;;2618504;54;20282;-85
2022/11/04 08:34:07;;;;;;;11.23;3.53;;;10.40;99.90;;;;;;2615806;39;20379;-80
2022/11/04 08:36:37;;;;;;;6.43;3.67;;;10.40;99.90;;;;;;2613030;54;20298;-80
2022/11/04 08:39:04;;;;;;;9.33;3.50;;;10.40;99.90;;;;;;2614069;47;20423;-80
2022/11/04 08:41:31;;;;;;;9.70;3.50;;;10.50;99.90;;;;;;2614298;47;20511;-79
2022/11/04 08:43:59;;;;;;;9.17;4.27;;;10.50;99.90;;;;;;2614296;54;21073;-85
2022/11/04 08:46:27;;;;;;;7.50;3.73;;;10.50;99.90;;;;;;2616294;54;20522;-85
2022/11/04 08:48:52;;;;;;;6.50;3.47;;;10.50;99.90;;;;;;2616085;54;20897;-79
2022/11/04 08:51:21;;;;;;;7.73;3.30;;;10.50;99.90;;;;;;2614202;39;20469;-79
2022/11/04 08:53:47;;;;;;;8.10;4.50;;;10.50;99.90;;;;;;2613980;54;20169;-85
2022/11/04 08:56:21;;;;;;;6.03;3.80;;;10.50;99.90;;;;;;2615883;54;20391;-85
2022/11/04 08:58:47;;;;;;;10.10;4.10;;;10.40;99.90;;;;;;2615416;54;20399;-77
2022/11/04 09:01:13;;;;;;;10.60;3.80;;;10.50;99.90;;;;;;2612651;47;21140;-78
2022/11/04 09:03:40;;;;;;;7.80;5.13;;;10.50;99.90;;;;;;2613690;46;20882;-86
2022/11/04 09:06:08;;;;;;;19.80;5.73;;;10.60;99.90;;;;;;2616738;47;20423;-86
2022/11/04 09:08:33;;;;;;;7.20;4.90;;;10.60;99.90;;;;;;2614855;47;20441;-86
2022/11/04 09:11:00;;;;;;;4.70;3.40;;;10.70;99.90;;;;;;2614081;54;20974;-80
2022/11/04 09:13:26;;;;;;;9.20;4.90;;;10.80;99.90;;;;;;2613882;54;20174;-80
2022/11/04 09:15:52;;;;;;;7.43;4.10;;;10.90;99.90;;;;;;2615212;54;20942;-80
2022/11/04 09:18:18;;;;;;;6.63;4.80;;;10.90;99.90;;;;;;2614841;54;20189;-79
2022/11/04 09:20:43;;;;;;;5.93;4.00;;;11.00;99.90;;;;;;2613680;54;20501;-79
2022/11/04 09:23:10;;;;;;;6.03;3.63;;;11.20;99.90;;;;;;2612928;54;20213;-79
2022/11/04 09:25:35;;;;;;;5.30;3.73;;;11.20;99.90;;;;;;2613767;39;20563;-78
2022/11/04 09:28:01;;;;;;;5.17;3.70;;;11.10;99.90;;;;;;2614143;54;20418;-77
2022/11/04 09:30:28;;;;;;;10.97;5.70;;;11.20;99.90;;;;;;2614202;54;20410;-79
2022/11/04 09:32:54;;;;;;;6.77;4.47;;;11.30;99.90;;;;;;2613447;54;20439;-80
2022/11/04 09:35:19;;;;;;;5.90;4.03;;;11.40;99.90;;;;;;2614850;54;20410;-81
2022/11/04 09:37:45;;;;;;;6.30;3.67;;;11.20;99.90;;;;;;2613721;54;20166;-81
2022/11/04 09:40:18;;;;;;;8.73;3.93;;;11.30;99.90;;;;;;2614388;54;20190;-78
2022/11/04 09:43:13;;;;;;;8.63;4.27;;;11.30;99.90;;;;;;2612530;46;20411;-79
2022/11/04 09:45:41;;;;;;;5.97;3.47;;;11.30;99.90;;;;;;2616990;54;20404;-87
2022/11/04 09:48:13;;;;;;;6.40;3.50;;;11.50;99.90;;;;;;2617659;47;20432;-86
2022/11/04 09:50:49;;;;;;;6.30;3.60;;;11.40;99.90;;;;;;2614490;54;20427;-76
2022/11/04 09:53:50;;;;;;;10.10;4.70;;;11.80;99.90;;;;;;2613798;54;20395;-76
2022/11/04 09:56:19;;;;;;;3.77;2.93;;;12.20;99.90;;;;;;2613160;54;20451;-78
2022/11/04 09:58:45;;;;;;;5.80;3.47;;;12.60;99.90;;;;;;2615034;54;20415;-79
2022/11/04 10:01:26;;;;;;;5.50;3.17;;;13.20;99.90;;;;;;2616915;47;20863;-79
2022/11/04 10:04:22;;;;;;;3.90;3.20;;;13.00;99.90;;;;;;2616704;54;20518;-87
2022/11/04 10:07:10;;;;;;;6.30;3.63;;;12.70;99.90;;;;;;2618693;54;20387;-87
2022/11/04 10:09:59;;;;;;;5.90;4.80;;;12.60;99.90;;;;;;2616569;54;20406;-77
2022/11/04 10:12:41;;;;;;;8.33;3.87;;;12.40;99.90;;;;;;2614028;54;20983;-77
2022/11/04 10:15:26;;;;;;;7.17;4.00;;;12.30;99.90;;;;;;2614095;54;20420;-81
2022/11/04 10:18:20;;;;;;;5.20;4.20;;;12.20;99.90;;;;;;2612966;47;20478;-82
2022/11/04 10:20:56;;;;;;;7.50;4.07;;;12.40;99.90;;;;;;2614603;54;20419;-77
2022/11/04 10:23:58;;;;;;;17.43;4.00;;;12.80;99.90;;;;;;2613576;47;20586;-77
2022/11/04 10:26:29;;;;;;;4.33;3.93;;;13.40;99.90;;;;;;2611957;39;21002;-76
2022/11/04 10:29:03;;;;;;;5.60;4.00;;;13.30;99.90;;;;;;2610684;54;20431;-78
2022/11/04 10:31:29;;;;;;;6.13;3.70;;;14.10;99.90;;;;;;2611967;54;20442;-76
2022/11/04 10:34:07;;;;;;;4.43;4.03;;;15.90;99.90;;;;;;2614284;46;20461;-80
2022/11/04 10:36:35;;;;;;;4.37;3.57;;;16.80;66.90;;;;;;2613076;54;20166;-79
2022/11/04 10:39:12;;;;;;;7.50;4.03;;;18.00;58.40;;;;;;2613110;54;20396;-83
2022/11/04 10:41:39;;;;;;;8.30;3.80;;;16.60;68.40;;;;;;2612052;54;20947;-81
2022/11/04 10:44:24;;;;;;;4.50;3.23;;;15.80;83.30;;;;;;2614364;54;20432;-79
2022/11/04 10:47:01;;;;;;;11.77;4.10;;;16.70;65.40;;;;;;2613273;47;21021;-80
2022/11/04 10:49:55;;;;;;;6.00;3.43;;;15.70;80.70;;;;;;2613521;54;20423;-80
2022/11/04 10:52:21;;;;;;;4.80;3.90;;;15.50;66.70;;;;;;2613711;54;20990;-80
2022/11/04 10:54:48;;;;;;;8.50;3.93;;;15.50;66.70;;;;;;2613683;54;20410;-77
2022/11/04 10:57:21;;;;;;;5.43;3.83;;;15.80;74.50;;;;;;2612490;39;20862;-79
2022/11/04 11:00:00;;;;;;;5.73;3.33;;;16.30;58.70;;;;;;2614734;54;20412;-80
2022/11/04 11:02:46;;;;;;;13.40;4.90;;;16.10;44.80;;;;;;2614102;54;20414;-80
2022/11/04 11:05:18;;;;;;;6.30;4.20;;;18.00;39.80;;;;;;2613612;54;20515;-81
2022/11/04 11:07:50;;;;;;;5.00;4.27;;;18.90;38.30;;;;;;2614550;54;20406;-80
2022/11/04 11:10:24;;;;;;;5.93;4.70;;;17.50;47.00;;;;;;2613161;39;21031;-80
2022/11/04 11:12:53;;;;;;;5.43;4.93;;;14.90;81.80;;;;;;2619082;54;20438;-81
2022/11/04 11:15:34;;;;;;;6.10;4.93;;;14.50;99.90;;;;;;2623622;54;20411;-79
2022/11/04 11:18:27;;;;;;;6.30;5.40;;;13.70;99.90;;;;;;2621275;54;20475;-82
2022/11/04 11:21:08;;;;;;;7.80;4.70;;;13.30;99.90;;;;;;2615289;54;20442;-82
2022/11/04 11:23:38;;;;;;;8.20;4.37;;;13.20;99.90;;;;;;2615113;54;20446;-82
2022/11/04 11:26:11;;;;;;;7.03;4.97;;;12.90;99.90;;;;;;2614827;54;20406;-78
2022/11/04 11:28:39;;;;;;;7.90;4.50;;;13.10;99.90;;;;;;2612039;54;20423;-78
2022/11/04 11:31:15;;;;;;;7.47;3.90;;;13.20;99.90;;;;;;2613029;39;20999;-78
2022/11/04 11:33:56;;;;;;;8.20;4.60;;;13.30;99.90;;;;;;2613857;47;20439;-84
2022/11/04 11:36:43;;;;;;;8.03;4.03;;;13.20;99.90;;;;;;2616393;47;20556;-85
2022/11/04 11:39:12;;;;;;;6.50;4.63;;;13.00;99.90;;;;;;2616072;54;20391;-78
2022/11/04 11:42:03;;;;;;;6.97;4.70;;;13.20;99.90;;;;;;2613473;39;20769;-78
2022/11/04 11:44:45;;;;;;;4.90;4.50;;;13.10;99.90;;;;;;2615850;39;20907;-86
2022/11/04 11:47:28;;;;;;;5.27;4.30;;;13.30;99.90;;;;;;2618795;39;20737;-87
2022/11/04 11:50:15;;;;;;;5.53;4.97;;;13.20;99.90;;;;;;2614999;54;20423;-77
2022/11/04 11:52:42;;;;;;;7.43;4.40;;;13.00;99.90;;;;;;2613663;54;20421;-78
2022/11/04 11:55:17;;;;;;;8.30;4.60;;;13.20;99.90;;;;;;2614815;54;20437;-77
2022/11/04 11:57:48;;;;;;;4.93;4.40;;;13.30;99.90;;;;;;2613177;54;20444;-78
2022/11/04 12:00:17;;;;;;;7.50;4.30;;;13.20;99.90;;;;;;2616139;47;21001;-88
2022/11/04 12:03:05;;;;;;;6.57;4.23;;;13.50;99.90;;;;;;2617177;39;20606;-86
2022/11/04 12:05:58;;;;;;;6.80;5.00;;;13.50;99.90;;;;;;2613902;54;20965;-79
2022/11/04 12:09:17;;;;;;;8.13;4.77;;;13.70;99.90;;;;;;2615082;54;20399;-79
2022/11/04 12:12:07;;;;;;;6.23;4.60;;;14.90;99.90;;;;;;2614752;47;20560;-77
2022/11/04 12:14:32;;;;;;;5.30;4.80;;;16.00;86.80;;;;;;2615051;54;20419;-83
2022/11/04 12:17:17;;;;;;;5.50;4.57;;;13.90;99.90;;;;;;2614668;54;20403;-82
2022/11/04 12:19:43;;;;;;;6.00;4.60;;;13.80;99.90;;;;;;2615894;47;20176;-79
2022/11/04 12:22:16;;;;;;;10.33;5.00;;;13.80;99.90;;;;;;2613193;54;20451;-81
2022/11/04 12:25:01;;;;;;;5.80;4.83;;;13.50;99.90;;;;;;2615459;54;20258;-87
2022/11/04 12:27:30;;;;;;;5.90;5.30;;;13.30;99.90;;;;;;2618555;54;20403;-86
2022/11/04 12:30:17;;;;;;;10.43;5.70;;;13.10;99.90;;;;;;2616916;54;20448;-77
2022/11/04 12:33:16;;;;;;;8.97;5.10;;;13.30;99.90;;;;;;2613608;54;21014;-76
2022/11/04 12:36:01;;;;;;;12.23;5.90;;;13.30;99.90;;;;;;2614378;54;20562;-77
2022/11/04 12:38:48;;;;;;;9.60;4.77;;;13.50;99.90;;;;;;2614473;54;20477;-77
2022/11/04 12:41:13;;;;;;;9.23;5.37;;;13.50;99.90;;;;;;2612166;54;20446;-77
2022/11/04 12:43:48;;;;;;;4.77;4.47;;;13.50;99.90;;;;;;2614968;54;20421;-78
2022/11/04 12:46:39;;;;;;;5.77;5.33;;;13.70;99.90;;;;;;2615339;54;20249;-78
2022/11/04 12:49:26;;;;;;;5.30;4.80;;;13.50;99.90;;;;;;2615192;54;20414;-77
2022/11/04 12:52:30;;;;;;;5.63;5.13;;;13.30;99.90;;;;;;2612787;54;20801;-77
2022/11/04 12:55:43;;;;;;;7.73;4.90;;;13.40;99.90;;;;;;2616942;54;20449;-83
2022/11/04 12:58:33;;;;;;;11.00;5.77;;;13.20;99.90;;;;;;2617537;54;20535;-84
2022/11/04 13:01:18;;;;;;;6.70;6.10;;;13.10;99.90;;;;;;2617678;47;20985;-84
2022/11/04 13:04:05;;;;;;;6.33;5.60;;;12.90;99.90;;;;;;2618102;54;20434;-77
2022/11/04 13:06:36;;;;;;;7.40;5.70;;;13.10;99.90;;;;;;2614658;54;20437;-77
2022/11/04 13:09:38;;;;;;;6.37;5.03;;;13.00;99.90;;;;;;2613905;47;20517;-77
2022/11/04 13:12:15;;;;;;;6.20;4.83;;;13.10;99.90;;;;;;2613640;54;20395;-77
2022/11/04 13:14:53;;;;;;;5.93;5.50;;;13.00;99.90;;;;;;2616871;39;20752;-77
2022/11/04 13:17:27;;;;;;;7.40;5.90;;;12.90;99.90;;;;;;2612468;54;20466;-77
2022/11/04 13:19:57;;;;;;;8.30;5.87;;;13.00;99.90;;;;;;2611207;54;20450;-81
2022/11/04 13:22:31;;;;;;;10.43;5.17;;;13.00;99.90;;;;;;2612142;54;20447;-80
2022/11/04 13:24:57;;;;;;;9.83;5.17;;;13.20;99.90;;;;;;2612658;54;20439;-82
2022/11/04 13:27:44;;;;;;;6.90;5.53;;;13.20;99.90;;;;;;2610982;54;20999;-82
2022/11/04 13:30:21;;;;;;;7.10;5.40;;;13.30;99.90;;;;;;2613909;54;20174;-87
2022/11/04 13:33:26;;;;;;;8.70;6.13;;;13.20;99.90;;;;;;2615584;39;20445;-84
2022/11/04 13:36:19;;;;;;;6.60;5.73;;;13.40;99.90;;;;;;2613045;54;20888;-79
2022/11/04 13:39:16;;;;;;;7.87;5.40;;;13.70;99.90;;;;;;2609936;54;20416;-77
2022/11/04 13:42:09;;;;;;;17.73;6.90;;;13.90;99.90;;;;;;2610682;54;20423;-78
2022/11/04 13:44:39;;;;;;;14.77;7.60;;;13.70;99.90;;;;;;2612010;54;20418;-79
2022/11/04 13:47:17;;;;;;;6.33;5.63;;;13.60;99.90;;;;;;2612758;39;20872;-79